Time;durP1;ratioP1;P1;durP2;ratioP2;P2;SDS_P1;SDS_P2;PMS_P1;PMS_P2;Temp;Humidity;BMP_temperature;BMP_pressure;BME280_temperature;BME280_humidity;BME280_pressure;Samples;Min_cycle;Max_cycle;Signal;HPM_P1;HPM_P2
2022/03/21 00:01:10;;;;;;;;;16.75;15.75;;;;;20.39;29.08;102174.81;5077276;27;45480;-46
2022/03/21 00:03:35;;;;;;;;;17.50;15.50;;;;;20.38;28.78;102178.34;5077186;27;45331;-42
2022/03/21 00:06:00;;;;;;;;;15.50;15.50;;;;;20.36;29.03;102180.16;5076260;28;45470;-49
2022/03/21 00:08:26;;;;;;;;;18.75;17.25;;;;;20.34;28.61;102175.88;5075844;27;46994;-47
2022/03/21 00:10:54;;;;;;;;;19.00;14.75;;;;;20.33;28.98;102166.25;5077444;27;45461;-45
2022/03/21 00:13:20;;;;;;;;;19.50;16.50;;;;;20.32;28.66;102168.03;5076058;28;45512;-42
2022/03/21 00:15:47;;;;;;;;;20.00;14.50;;;;;20.31;28.50;102179.47;5077221;27;45333;-42
2022/03/21 00:18:14;;;;;;;;;15.25;15.25;;;;;20.30;29.06;102177.75;5076955;27;45339;-49
2022/03/21 00:20:47;;;;;;;;;16.75;15.50;;;;;20.28;29.26;102178.72;5077033;27;45263;-42
2022/03/21 00:23:13;;;;;;;;;15.25;13.75;;;;;20.25;29.08;102179.66;5076939;28;45251;-47
2022/03/21 00:25:40;;;;;;;;;19.50;17.00;;;;;20.26;28.95;102176.13;5076960;27;45357;-44
2022/03/21 00:28:07;;;;;;;;;15.25;15.00;;;;;20.23;28.86;102178.84;5076808;27;46304;-48
2022/03/21 00:30:34;;;;;;;;;18.75;15.75;;;;;20.22;28.80;102178.00;5076658;27;45359;-47
2022/03/21 00:33:00;;;;;;;;;21.25;16.25;;;;;20.20;28.79;102173.72;5075439;28;45431;-46
2022/03/21 00:35:27;;;;;;;;;16.25;15.50;;;;;20.17;29.22;102172.03;5077037;27;45293;-46
2022/03/21 00:37:53;;;;;;;;;17.25;16.25;;;;;20.18;28.75;102178.16;5076826;27;47269;-44
2022/03/21 00:40:18;;;;;;;;;16.75;15.25;;;;;20.16;29.05;102179.97;5092305;27;45307;-46
2022/03/21 00:42:45;;;;;;;;;21.50;17.75;;;;;20.14;29.17;102171.25;5076772;28;45358;-42
2022/03/21 00:45:15;;;;;;;;;16.25;15.25;;;;;20.12;28.91;102178.38;5076954;27;45619;-44
2022/03/21 00:47:41;;;;;;;;;17.25;16.00;;;;;20.10;29.06;102186.28;5076525;27;47527;-48
2022/03/21 00:50:08;;;;;;;;;18.25;16.50;;;;;20.09;29.40;102179.31;5076518;27;46124;-50
2022/03/21 00:52:40;;;;;;;;;18.75;16.50;;;;;20.07;29.02;102176.72;5076506;27;45338;-41
2022/03/21 00:55:06;;;;;;;;;17.50;16.50;;;;;20.03;29.14;102169.84;5076711;27;45516;-42
2022/03/21 00:57:32;;;;;;;;;17.75;16.75;;;;;20.04;29.25;102176.81;5076046;27;46607;-44
2022/03/21 00:59:57;;;;;;;;;17.00;16.50;;;;;20.03;29.38;102177.72;5076466;27;45217;-42
2022/03/21 01:02:23;;;;;;;;;17.25;16.00;;;;;20.01;29.62;102179.53;5076763;27;45272;-43
2022/03/21 01:04:48;;;;;;;;;19.00;16.25;;;;;20.00;29.51;102169.94;5076629;27;45304;-46
2022/03/21 01:07:13;;;;;;;;;20.50;17.25;;;;;19.98;29.56;102168.25;5074798;28;45862;-46
2022/03/21 01:09:39;;;;;;;;;18.50;17.00;;;;;19.97;29.19;102174.44;5076129;27;45426;-44
2022/03/21 01:12:06;;;;;;;;;18.25;17.25;;;;;19.96;29.31;102167.44;5075153;28;45221;-44
2022/03/21 01:14:32;;;;;;;;;18.25;15.25;;;;;19.95;29.21;102171.00;5074981;28;45418;-45
2022/03/21 01:16:58;;;;;;;;;20.00;17.00;;;;;19.93;29.31;102177.19;5076157;27;45899;-50
2022/03/21 01:19:23;;;;;;;;;15.00;15.00;;;;;19.91;29.35;102171.09;5076414;27;45385;-43
2022/03/21 01:21:51;;;;;;;;;17.00;16.75;;;;;19.90;29.53;102174.63;5076156;27;45404;-44
2022/03/21 01:24:16;;;;;;;;;15.50;14.75;;;;;19.90;29.53;102173.75;5076480;27;45927;-41
2022/03/21 01:26:42;;;;;;;;;17.00;15.25;;;;;19.88;29.61;102167.72;5075868;27;46012;-53
2022/03/21 01:29:07;;;;;;;;;18.00;17.00;;;;;19.86;29.69;102172.16;5076012;27;45306;-51
2022/03/21 01:31:33;;;;;;;;;14.25;12.25;;;;;19.83;29.52;102173.09;5076162;27;45323;-45
2022/03/21 01:33:58;;;;;;;;;18.25;17.00;;;;;19.85;29.80;102176.50;5076353;28;45371;-47
2022/03/21 01:36:23;;;;;;;;;15.00;14.50;;;;;19.84;29.64;102172.19;5076181;27;46107;-48
2022/03/21 01:38:49;;;;;;;;;19.25;15.50;;;;;19.84;29.49;102168.66;5075833;27;46282;-51
2022/03/21 01:41:14;;;;;;;;;17.00;15.25;;;;;19.82;30.05;102173.09;5075970;27;45318;-45
2022/03/21 01:43:55;;;;;;;;;15.50;15.50;;;;;19.81;29.86;102169.63;5074529;28;45466;-42
2022/03/21 01:46:20;;;;;;;;;21.00;18.00;;;;;19.81;29.98;102179.28;5077711;27;45990;-43
2022/03/21 01:48:45;;;;;;;;;21.25;17.50;;;;;19.80;30.13;102172.28;5079251;27;45445;-42
2022/03/21 01:51:11;;;;;;;;;16.25;14.75;;;;;19.78;29.97;102170.59;5079310;27;45452;-47
2022/03/21 01:56:20;;;;;;;;;18.00;16.50;;;;;19.77;29.38;102171.50;5079062;28;46116;-48
2022/03/21 01:58:46;;;;;;;;;19.50;18.50;;;;;19.77;30.03;102168.00;5079182;27;45342;-52
2022/03/21 02:01:11;;;;;;;;;15.00;14.25;;;;;19.76;29.53;102171.53;5079334;27;45275;-53
2022/03/21 02:03:36;;;;;;;;;17.25;15.75;;;;;19.76;29.93;102171.53;5079234;27;45372;-50
2022/03/21 02:06:02;;;;;;;;;18.25;16.25;;;;;19.73;29.94;102175.13;5079103;27;45293;-48
2022/03/21 02:08:29;;;;;;;;;17.50;15.50;;;;;19.74;29.87;102173.34;5079318;27;45220;-46
2022/03/21 02:10:54;;;;;;;;;16.25;16.00;;;;;19.73;30.20;102177.75;5079400;27;45386;-44
2022/03/21 02:13:22;;;;;;;;;15.00;15.00;;;;;19.71;30.15;102168.19;5078056;28;45542;-43
2022/03/21 02:15:47;;;;;;;;;20.75;18.00;;;;;19.72;29.74;102176.03;5078723;27;45425;-44
2022/03/21 02:18:16;;;;;;;;;22.25;18.00;;;;;19.71;29.82;102176.09;5078927;28;45496;-44
2022/03/21 02:20:43;;;;;;;;;15.75;15.75;;;;;19.70;29.75;102167.31;5079077;27;45439;-46
2022/03/21 02:23:34;;;;;;;;;17.25;17.25;;;;;19.70;29.88;102166.47;5079069;27;45572;-51
2022/03/21 02:26:00;;;;;;;;;17.00;16.75;;;;;19.68;30.01;102157.75;5078844;27;45328;-43
2022/03/21 02:28:27;;;;;;;;;15.25;15.25;;;;;19.67;29.82;102167.44;5079064;27;45512;-47
2022/03/21 02:30:55;;;;;;;;;17.50;17.00;;;;;19.66;29.92;102164.81;5078799;28;45439;-44
2022/03/21 02:33:21;;;;;;;;;17.25;16.00;;;;;19.66;30.16;102170.97;5079022;27;45567;-45
2022/03/21 02:35:48;;;;;;;;;16.25;16.25;;;;;19.66;29.88;102162.19;5078575;27;46328;-43
2022/03/21 02:38:16;;;;;;;;;21.00;18.50;;;;;19.65;29.90;102156.09;5078651;28;45369;-42
2022/03/21 02:40:41;;;;;;;;;17.00;16.25;;;;;19.64;29.99;102157.00;5078632;27;45362;-41
2022/03/21 02:43:07;;;;;;;;;16.25;15.25;;;;;19.63;30.36;102160.53;5078751;27;45413;-49
2022/03/21 02:45:32;;;;;;;;;18.00;17.25;;;;;19.62;30.19;102150.91;5078241;27;46224;-45
2022/03/21 02:47:58;;;;;;;;;17.75;13.75;;;;;19.61;30.00;102151.81;5078864;27;45244;-43
2022/03/21 02:50:40;;;;;;;;;17.00;13.25;;;;;19.61;30.31;102151.81;5078498;27;45361;-44
2022/03/21 02:53:09;;;;;;;;;19.00;18.00;;;;;19.60;30.03;102144.84;5078938;28;45450;-42
2022/03/21 02:55:34;;;;;;;;;19.25;14.75;;;;;19.59;30.31;102146.63;5078075;27;45380;-45
2022/03/21 02:58:00;;;;;;;;;19.25;16.25;;;;;19.59;29.96;102146.63;5075687;28;45240;-48
2022/03/21 03:00:25;;;;;;;;;18.00;15.75;;;;;19.58;30.05;102151.91;5078318;27;45223;-44
2022/03/21 03:02:51;;;;;;;;;16.75;16.50;;;;;19.56;30.05;102153.75;5078505;27;45203;-41
2022/03/21 03:05:16;;;;;;;;;20.00;17.25;;;;;19.57;30.18;102144.91;5078215;27;47120;-42
2022/03/21 03:07:42;;;;;;;;;18.25;16.00;;;;;19.58;30.57;102151.91;5078253;27;45485;-44
2022/03/21 03:10:07;;;;;;;;;19.50;17.50;;;;;19.56;30.34;102148.50;5078331;27;45319;-44
2022/03/21 03:12:33;;;;;;;;;17.50;16.25;;;;;19.55;29.98;102152.03;5078111;27;45569;-45
2022/03/21 03:14:58;;;;;;;;;16.75;16.50;;;;;19.55;30.78;102146.75;5078191;27;46907;-44
2022/03/21 03:17:23;;;;;;;;;17.25;17.25;;;;;19.53;30.27;102151.19;5077993;27;45443;-46
2022/03/21 03:19:49;;;;;;;;;18.50;16.00;;;;;19.53;30.23;102151.19;5078025;27;45413;-43
2022/03/21 03:22:16;;;;;;;;;17.50;16.50;;;;;19.53;30.46;102154.69;5078123;27;45398;-49
2022/03/21 03:24:42;;;;;;;;;22.50;17.75;;;;;19.53;30.66;102153.84;5077705;27;46155;-47
2022/03/21 03:27:07;;;;;;;;;17.25;17.00;;;;;19.53;30.36;102153.84;5077889;27;45327;-54
2022/03/21 03:29:32;;;;;;;;;16.50;16.50;;;;;19.52;30.35;102162.63;5078063;27;45429;-50
2022/03/21 03:32:03;;;;;;;;;17.50;16.00;;;;;19.52;30.37;102160.00;5077016;28;45585;-53
2022/03/21 03:34:31;;;;;;;;;16.25;15.50;;;;;19.49;30.35;102160.06;5077866;27;46158;-50
2022/03/21 03:36:56;;;;;;;;;20.00;18.00;;;;;19.50;30.71;102151.28;5077772;27;45429;-50
2022/03/21 03:39:21;;;;;;;;;22.00;17.75;;;;;19.50;30.47;102156.53;5077959;27;45437;-43
2022/03/21 03:41:47;;;;;;;;;15.75;13.00;;;;;19.49;30.48;102162.72;5077962;27;45354;-49
2022/03/21 03:44:12;;;;;;;;;19.75;17.75;;;;;19.47;30.79;102160.97;5077387;27;45298;-44
2022/03/21 03:46:38;;;;;;;;;21.00;18.25;;;;;19.49;30.45;102173.22;5077470;27;45401;-44
2022/03/21 03:49:03;;;;;;;;;19.25;16.75;;;;;19.48;30.87;102164.50;5077987;27;45326;-43
2022/03/21 03:51:29;;;;;;;;;19.50;18.25;;;;;19.47;30.46;102165.41;5078236;27;45311;-43
2022/03/21 03:53:54;;;;;;;;;18.25;17.00;;;;;19.47;30.48;102166.25;5077346;27;45297;-48
2022/03/21 03:56:19;;;;;;;;;15.75;15.50;;;;;19.46;30.45;102161.03;5077463;27;45291;-47
2022/03/21 03:58:45;;;;;;;;;19.50;17.00;;;;;19.45;31.08;102173.34;5077421;27;45691;-47
2022/03/21 04:01:10;;;;;;;;;15.50;15.25;;;;;19.45;30.89;102175.09;5077665;27;45666;-46
2022/03/21 04:03:47;;;;;;;;;18.75;16.00;;;;;19.44;30.87;102170.72;5077111;27;46260;-44
2022/03/21 04:06:19;;;;;;;;;19.50;16.50;;;;;19.44;30.96;102171.63;5075922;28;46155;-47
2022/03/21 04:08:46;;;;;;;;;18.25;15.50;;;;;19.43;30.95;102175.16;5076797;27;45181;-47
2022/03/21 04:11:12;;;;;;;;;21.75;15.75;;;;;19.43;30.58;102171.63;5077493;27;45526;-47
2022/03/21 04:13:38;;;;;;;;;19.00;17.50;;;;;19.43;31.06;102179.53;5077082;27;45386;-51
2022/03/21 04:16:04;;;;;;;;;17.50;17.25;;;;;19.42;31.10;102178.69;5077289;27;45331;-54
2022/03/21 04:18:29;;;;;;;;;17.50;15.25;;;;;19.41;30.57;102181.34;5077288;27;45476;-47
2022/03/21 04:20:55;;;;;;;;;17.00;16.00;;;;;19.42;31.06;102183.94;5077458;27;45437;-52
2022/03/21 04:23:20;;;;;;;;;18.25;16.00;;;;;19.40;31.00;102185.75;5076886;27;45393;-51
2022/03/21 04:25:47;;;;;;;;;23.25;19.25;;;;;19.40;31.15;102187.53;5076915;27;45323;-50
2022/03/21 04:28:14;;;;;;;;;21.75;15.00;;;;;19.40;31.06;102190.16;5076981;27;45331;-45
2022/03/21 04:30:41;;;;;;;;;15.75;15.75;;;;;19.40;30.78;102184.91;5077174;27;45568;-48
2022/03/21 04:33:09;;;;;;;;;21.00;18.50;;;;;19.39;31.17;102188.44;5076724;27;47273;-45
2022/03/21 04:35:35;;;;;;;;;19.00;17.00;;;;;19.37;31.25;102191.09;5076955;27;45376;-47
2022/03/21 04:38:01;;;;;;;;;15.75;15.75;;;;;19.37;31.12;102204.22;5077093;28;45800;-50
2022/03/21 04:40:26;;;;;;;;;18.50;17.75;;;;;19.37;30.98;102204.22;5077228;27;45792;-45
2022/03/21 04:42:52;;;;;;;;;20.25;17.50;;;;;19.37;31.23;102200.75;5076435;27;46208;-46
2022/03/21 04:45:17;;;;;;;;;17.75;15.50;;;;;19.35;30.99;102206.03;5076431;27;45249;-49
2022/03/21 04:47:43;;;;;;;;;20.00;17.00;;;;;19.36;30.93;102202.50;5076657;27;45280;-48
2022/03/21 04:50:09;;;;;;;;;21.00;16.50;;;;;19.35;31.01;102206.03;5076937;27;45348;-46
2022/03/21 04:52:35;;;;;;;;;19.00;16.00;;;;;19.35;31.41;102210.44;5076649;27;46319;-44
2022/03/21 04:55:01;;;;;;;;;17.00;14.75;;;;;19.35;31.32;102219.19;5076556;27;45330;-50
2022/03/21 04:57:26;;;;;;;;;18.75;16.75;;;;;19.34;31.15;102214.84;5076480;27;45431;-47
2022/03/21 04:59:53;;;;;;;;;17.75;17.75;;;;;19.34;31.37;102217.47;5076807;27;45624;-51
2022/03/21 05:02:19;;;;;;;;;19.50;17.50;;;;;19.34;31.47;102222.75;5076405;27;45367;-49
2022/03/21 05:04:44;;;;;;;;;17.00;15.00;;;;;19.33;31.04;102218.38;5075017;28;45761;-52
2022/03/21 05:07:16;;;;;;;;;23.00;19.25;;;;;19.34;31.01;102216.59;5076349;27;45958;-52
2022/03/21 05:09:42;;;;;;;;;16.00;12.50;;;;;19.33;31.44;102217.50;5076556;27;45584;-45
2022/03/21 05:12:09;;;;;;;;;18.50;16.00;;;;;19.32;31.55;102216.66;5076485;27;45390;-43
2022/03/21 05:14:35;;;;;;;;;22.50;16.75;;;;;19.32;31.52;102224.53;5076333;27;45352;-45
2022/03/21 05:17:02;;;;;;;;;20.75;18.00;;;;;19.31;31.56;102218.41;5076425;27;45413;-48
2022/03/21 05:19:28;;;;;;;;;18.00;15.00;;;;;19.31;31.65;102214.94;5076306;27;45567;-47
2022/03/21 05:21:54;;;;;;;;;20.00;18.50;;;;;19.31;31.22;102217.56;5077776;28;45396;-47
2022/03/21 05:32:31;;;;;;;;;21.50;19.25;;;;;19.28;31.51;102230.78;5079256;27;45658;-48
2022/03/21 05:37:40;;;;;;;;;22.50;21.50;;;;;19.25;31.66;102233.47;5079586;28;45315;-51
2022/03/21 05:42:50;;;;;;;;;34.50;28.00;;;;;19.23;32.12;102235.31;5079140;28;45886;-50
2022/03/21 05:45:19;;;;;;;;;25.00;23.75;;;;;19.22;31.52;102234.44;5079273;27;45448;-49
2022/03/21 05:50:34;;;;;;;;;27.25;25.50;;;;;19.20;31.86;102236.25;5079829;28;45460;-51
2022/03/21 05:53:00;;;;;;;;;28.00;26.50;;;;;19.21;32.01;102237.97;5079212;27;46227;-49
2022/03/21 05:55:25;;;;;;;;;27.00;24.50;;;;;19.20;31.95;102238.03;5077989;28;45685;-51
2022/03/21 05:57:51;;;;;;;;;30.50;28.00;;;;;19.18;32.18;102242.44;5078280;28;45541;-50
2022/03/21 06:00:22;;;;;;;;;31.25;28.50;;;;;19.14;32.13;102247.78;5079668;27;45468;-50
2022/03/21 06:02:48;;;;;;;;;34.25;31.00;;;;;19.14;31.93;102252.19;5079348;27;45428;-54
2022/03/21 06:05:14;;;;;;;;;36.00;31.75;;;;;19.11;32.06;102247.00;5079266;27;45370;-51
2022/03/21 06:07:40;;;;;;;;;35.25;30.50;;;;;19.08;32.15;102253.22;5079575;27;45448;-52
2022/03/21 06:10:06;;;;;;;;;33.00;29.75;;;;;19.06;32.18;102249.75;5079555;27;45436;-53
2022/03/21 06:12:31;;;;;;;;;32.00;30.75;;;;;19.04;32.51;102255.97;5079032;27;46013;-51
2022/03/21 06:14:56;;;;;;;;;43.50;32.00;;;;;19.02;32.43;102269.13;5078908;27;45491;-53
2022/03/21 06:17:22;;;;;;;;;35.75;31.75;;;;;19.02;32.34;102263.03;5078927;27;47124;-49
2022/03/21 06:19:47;;;;;;;;;39.75;33.25;;;;;18.98;32.44;102264.88;5079077;27;45466;-48
2022/03/21 06:22:13;;;;;;;;;33.25;31.50;;;;;18.97;32.32;102265.78;5078995;27;46421;-54
2022/03/21 06:24:38;;;;;;;;;36.25;32.25;;;;;18.93;32.70;102269.34;5079179;27;45312;-52
2022/03/21 06:27:04;;;;;;;;;43.50;33.75;;;;;18.91;32.46;102276.38;5078878;27;45177;-52
2022/03/21 06:29:29;;;;;;;;;37.50;30.75;;;;;18.89;32.53;102279.06;5079333;27;45540;-51
2022/03/21 06:31:54;;;;;;;;;39.67;32.33;;;;;18.89;32.63;102283.47;5078627;27;48220;-56
2022/03/21 06:34:20;;;;;;;;;38.00;32.25;;;;;18.85;32.53;102288.78;5078905;27;45306;-54
2022/03/21 06:36:45;;;;;;;;;40.50;33.50;;;;;18.83;32.86;102290.59;5078836;27;45375;-54
2022/03/21 06:39:11;;;;;;;;;43.25;34.50;;;;;18.81;32.86;102295.00;5079360;27;45231;-49
2022/03/21 06:41:36;;;;;;;;;34.25;31.25;;;;;18.80;33.11;102295.91;5078702;27;46167;-52
2022/03/21 06:44:02;;;;;;;;;35.75;31.50;;;;;18.79;32.92;102296.84;5078686;27;45275;-50
2022/03/21 06:46:27;;;;;;;;;38.00;32.00;;;;;18.79;33.10;102307.34;5078360;27;45349;-53
2022/03/21 06:48:53;;;;;;;;;38.25;31.75;;;;;18.77;32.99;102300.38;5078919;27;45570;-49
2022/03/21 06:51:18;;;;;;;;;40.50;32.25;;;;;18.77;32.99;102311.78;5078442;27;45315;-54
2022/03/21 06:53:43;;;;;;;;;35.00;31.75;;;;;18.75;32.93;102313.56;5078518;27;45373;-52
2022/03/21 06:56:09;;;;;;;;;34.00;31.75;;;;;18.74;32.92;102319.72;5078909;27;45472;-49
2022/03/21 06:58:34;;;;;;;;;36.67;32.00;;;;;18.72;32.77;102329.41;5078789;27;45306;-49
2022/03/21 07:00:59;;;;;;;;;41.50;34.00;;;;;18.71;33.23;102322.41;5078132;27;48933;-49
2022/03/21 07:03:26;;;;;;;;;37.75;33.00;;;;;18.68;33.11;102320.72;5078370;27;45487;-51
2022/03/21 07:05:52;;;;;;;;;37.75;31.50;;;;;18.68;33.25;102322.50;5078572;27;45469;-48
2022/03/21 07:08:17;;;;;;;;;37.75;31.00;;;;;18.66;33.20;102322.53;5078755;27;45488;-55
2022/03/21 07:10:44;;;;;;;;;36.00;32.00;;;;;18.66;33.14;102325.16;5078449;27;45276;-50
2022/03/21 07:13:10;;;;;;;;;35.75;30.75;;;;;18.66;33.31;102329.56;5078518;28;45209;-53
2022/03/21 07:15:40;;;;;;;;;38.00;32.50;;;;;18.65;33.24;102326.03;5078326;27;45371;-54
2022/03/21 07:18:05;;;;;;;;;34.50;31.00;;;;;18.64;33.31;102326.94;5078324;27;45489;-47
2022/03/21 07:20:31;;;;;;;;;35.25;31.75;;;;;18.64;33.16;102332.19;5078023;27;46795;-46
2022/03/21 07:22:57;;;;;;;;;40.50;33.75;;;;;18.63;33.54;102335.72;5078001;27;45401;-53
2022/03/21 07:25:23;;;;;;;;;34.50;31.00;;;;;18.62;33.24;102328.75;5078093;27;45261;-51
2022/03/21 07:27:49;;;;;;;;;32.50;28.50;;;;;18.59;33.44;102323.56;5076980;28;45451;-51
2022/03/21 07:30:15;;;;;;;;;34.75;30.00;;;;;18.59;33.36;102328.81;5078090;27;46101;-48
2022/03/21 07:32:42;;;;;;;;;33.50;29.50;;;;;18.59;33.35;102328.81;5078380;27;45812;-47
2022/03/21 07:35:08;;;;;;;;;31.50;27.50;;;;;18.61;33.36;102328.78;5077850;27;45322;-48
2022/03/21 07:37:52;;;;;;;;;33.50;31.00;;;;;18.62;33.36;102328.75;5078155;27;45428;-54
2022/03/21 07:40:18;;;;;;;;;32.00;28.25;;;;;18.63;33.35;102334.88;5077566;27;46374;-45
2022/03/21 07:42:45;;;;;;;;;34.75;29.25;;;;;18.64;33.72;102333.97;5077623;27;45297;-49
2022/03/21 07:47:57;;;;;;;;;34.50;29.50;;;;;18.63;33.83;102329.63;5077898;28;45497;-45
2022/03/21 07:50:26;;;;;;;;;31.00;30.00;;;;;18.63;33.61;102334.88;5077086;27;45361;-53
2022/03/21 07:52:53;;;;;;;;;31.75;29.75;;;;;18.63;33.39;102329.63;5077627;27;45238;-49
2022/03/21 07:55:19;;;;;;;;;30.25;30.25;;;;;18.64;33.48;102336.59;5076587;28;45545;-53
2022/03/21 07:57:45;;;;;;;;;31.25;27.50;;;;;18.63;33.67;102335.72;5078115;27;45580;-52
2022/03/21 08:00:11;;;;;;;;;30.50;27.25;;;;;18.63;33.72;102340.97;5077439;27;45939;-55
2022/03/21 08:02:37;;;;;;;;;26.00;24.75;;;;;18.60;33.43;102335.81;5077566;27;45872;-53
2022/03/21 08:05:04;;;;;;;;;28.75;25.00;;;;;18.63;33.69;102342.75;5077458;27;45262;-55
2022/03/21 08:07:29;;;;;;;;;29.25;27.25;;;;;18.65;33.95;102346.19;5077517;27;45415;-54
2022/03/21 08:09:55;;;;;;;;;31.00;28.50;;;;;18.63;33.89;102340.13;5077169;27;46258;-57
2022/03/21 08:12:20;;;;;;;;;25.25;24.25;;;;;18.64;33.95;102344.47;5075964;28;45374;-57
2022/03/21 08:14:48;;;;;;;;;33.75;29.00;;;;;18.63;33.82;102338.34;5077455;27;45291;-52
2022/03/21 08:17:13;;;;;;;;;34.25;28.50;;;;;18.60;34.02;102341.06;5077711;27;45497;-58
2022/03/21 08:19:38;;;;;;;;;27.25;22.75;;;;;18.65;33.94;102344.44;5077147;27;46356;-55
2022/03/21 08:22:04;;;;;;;;;30.00;27.75;;;;;18.61;33.90;102345.41;5077054;27;45374;-56
2022/03/21 08:24:34;;;;;;;;;33.75;28.00;;;;;18.66;33.94;102350.56;5077101;27;45271;-53
2022/03/21 08:26:59;;;;;;;;;30.00;27.25;;;;;18.66;33.88;102350.56;5077254;27;45248;-50
2022/03/21 08:29:25;;;;;;;;;25.75;25.50;;;;;18.67;34.08;102347.88;5076874;27;46125;-48
2022/03/21 08:31:50;;;;;;;;;29.50;26.75;;;;;18.68;34.17;102348.78;5076856;27;45317;-51
2022/03/21 08:34:16;;;;;;;;;29.50;27.00;;;;;18.73;34.16;102349.50;5077396;27;45344;-56
2022/03/21 08:36:41;;;;;;;;;29.75;28.75;;;;;18.72;34.12;102353.03;5077141;27;45595;-51
2022/03/21 08:39:09;;;;;;;;;27.50;25.75;;;;;18.73;34.10;102362.63;5076752;27;45334;-52
2022/03/21 08:41:34;;;;;;;;;30.75;30.00;;;;;18.71;33.66;102359.19;5076700;27;45307;-56
2022/03/21 08:44:00;;;;;;;;;30.00;28.50;;;;;18.67;34.44;102352.28;5076834;27;45314;-53
2022/03/21 08:46:26;;;;;;;;;29.50;26.75;;;;;18.65;33.85;102356.72;5076946;27;45426;-55
2022/03/21 08:51:37;;;;;;;;;27.50;24.50;;;;;18.72;34.08;102355.66;5076735;27;45854;-56
2022/03/21 08:54:04;;;;;;;;;31.50;27.75;;;;;18.75;34.07;102355.59;5075494;28;45289;-50
2022/03/21 08:56:29;;;;;;;;;24.50;22.50;;;;;18.79;33.74;102361.63;5076913;27;45386;-50
2022/03/21 08:58:56;;;;;;;;;26.00;23.50;;;;;18.82;33.85;102351.91;5076552;27;45559;-52
2022/03/21 09:01:22;;;;;;;;;21.50;21.00;;;;;18.85;33.86;102351.84;5075178;28;45435;-51
2022/03/21 09:03:49;;;;;;;;;22.25;20.50;;;;;18.87;33.64;102354.44;5076766;27;45378;-56
2022/03/21 09:06:14;;;;;;;;;19.75;17.50;;;;;18.90;33.81;102350.88;5077138;28;45462;-50
2022/03/21 09:08:42;;;;;;;;;21.75;20.25;;;;;18.92;33.76;102352.56;5075002;27;46221;-54
2022/03/21 09:11:08;;;;;;;;;24.00;23.75;;;;;18.95;33.92;102351.66;5076376;27;45283;-52
2022/03/21 09:13:33;;;;;;;;;18.50;18.00;;;;;18.98;33.80;102346.31;5076497;27;45267;-55
2022/03/21 09:15:58;;;;;;;;;22.50;20.50;;;;;19.02;33.92;102347.97;5076442;27;45219;-55
2022/03/21 09:18:24;;;;;;;;;20.50;20.25;;;;;19.04;33.61;102346.16;5076226;27;45311;-51
2022/03/21 09:20:49;;;;;;;;;20.25;18.75;;;;;19.06;33.81;102344.38;5076721;27;45349;-54
2022/03/21 09:23:16;;;;;;;;;23.75;20.00;;;;;19.08;33.88;102347.81;5076234;27;45246;-52
2022/03/21 09:25:41;;;;;;;;;21.75;20.50;;;;;19.08;33.79;102334.69;5076498;27;45621;-55
2022/03/21 09:28:08;;;;;;;;;21.75;21.25;;;;;19.10;33.58;102334.63;5076193;27;45302;-52
2022/03/21 09:30:33;;;;;;;;;22.75;18.50;;;;;19.11;33.71;102347.75;5076142;27;46014;-51
2022/03/21 09:32:59;;;;;;;;;22.00;18.25;;;;;19.11;33.75;102341.63;5076253;28;45393;-51
2022/03/21 09:35:24;;;;;;;;;22.00;17.25;;;;;19.13;33.72;102342.44;5076413;27;45533;-47
2022/03/21 09:37:50;;;;;;;;;19.50;18.50;;;;;19.11;33.70;102341.63;5076030;27;47156;-50
2022/03/21 09:40:19;;;;;;;;;26.25;17.50;;;;;19.12;33.68;102343.34;5076249;27;45365;-50
2022/03/21 09:42:45;;;;;;;;;22.00;18.00;;;;;19.11;33.42;102331.97;5076388;27;45224;-50
2022/03/21 09:45:11;;;;;;;;;21.50;17.50;;;;;19.13;33.46;102342.44;5076297;27;45570;-52
2022/03/21 09:50:32;;;;;;;;;20.75;19.25;;;;;19.13;33.86;102340.66;5075977;27;45430;-46
2022/03/21 09:52:59;;;;;;;;;17.00;15.25;;;;;19.14;33.37;102331.03;5076073;27;45690;-49
2022/03/21 09:55:24;;;;;;;;;22.75;18.25;;;;;19.14;33.67;102328.41;5076229;27;45472;-48
2022/03/21 09:57:49;;;;;;;;;20.00;18.50;;;;;19.13;33.72;102330.16;5076136;27;45455;-48
2022/03/21 10:00:15;;;;;;;;;17.00;16.00;;;;;19.13;33.50;102324.91;5074595;28;45360;-53
2022/03/21 10:02:41;;;;;;;;;17.50;17.50;;;;;19.12;33.36;102320.56;5076179;27;45378;-52
2022/03/21 10:05:06;;;;;;;;;17.50;16.25;;;;;19.15;33.35;102328.34;5076073;27;45545;-54
2022/03/21 10:07:32;;;;;;;;;17.50;17.25;;;;;19.18;33.69;102326.56;5077948;27;47691;-54
2022/03/21 10:10:08;;;;;;;;;20.25;18.00;;;;;19.19;33.54;102321.25;5079241;27;45325;-54
2022/03/21 10:12:34;;;;;;;;;20.25;16.25;;;;;19.20;33.31;102320.34;5079414;27;45288;-54
2022/03/21 10:14:59;;;;;;;;;18.25;16.50;;;;;19.19;33.51;102312.50;5079250;27;45259;-54
2022/03/21 10:17:25;;;;;;;;;17.25;16.00;;;;;19.20;33.57;102319.50;5079047;27;46035;-53
2022/03/21 10:19:53;;;;;;;;;17.50;15.50;;;;;19.20;33.62;102320.34;5079407;27;45342;-52
2022/03/21 10:22:33;;;;;;;;;17.50;15.75;;;;;19.20;33.47;102324.75;5079381;27;45840;-53
2022/03/21 10:25:04;;;;;;;;;18.50;15.00;;;;;19.20;33.46;102319.50;5079166;28;45316;-52
2022/03/21 10:27:40;;;;;;;;;17.50;16.00;;;;;19.20;33.78;102316.88;5077629;28;45355;-56
2022/03/21 10:30:26;;;;;;;;;19.00;15.00;;;;;19.21;33.57;102310.72;5077217;27;45911;-55
2022/03/21 10:32:56;;;;;;;;;17.50;15.50;;;;;19.22;33.47;102309.81;5077322;27;45540;-52
2022/03/21 10:35:26;;;;;;;;;15.00;15.00;;;;;19.26;33.46;102306.19;5079236;27;45261;-55
2022/03/21 10:37:53;;;;;;;;;10.75;10.75;;;;;19.26;33.46;102307.06;5078692;27;46275;-57
2022/03/21 10:40:33;;;;;;;;;13.75;11.50;;;;;19.28;33.63;102307.91;5078503;27;45868;-53
2022/03/21 10:43:07;;;;;;;;;16.50;14.75;;;;;19.30;33.85;102303.44;5078506;27;45771;-56
2022/03/21 10:45:39;;;;;;;;;14.00;13.50;;;;;19.32;33.69;102298.16;5078412;27;45374;-56
2022/03/21 10:48:06;;;;;;;;;13.75;13.25;;;;;19.35;33.65;102302.47;5076460;27;46377;-54
2022/03/21 10:50:41;;;;;;;;;18.25;14.50;;;;;19.34;33.44;102301.59;5077417;28;45743;-52
2022/03/21 10:53:09;;;;;;;;;20.25;17.50;;;;;19.34;33.57;102295.47;5093802;27;45279;-50
2022/03/21 10:55:35;;;;;;;;;14.50;13.75;;;;;19.35;33.77;102302.47;5072410;28;45452;-53
2022/03/21 10:58:01;;;;;;;;;14.00;13.50;;;;;19.33;33.45;102294.63;5057860;28;45444;-53
2022/03/21 11:00:27;;;;;;;;;15.50;13.00;;;;;19.34;33.37;102292.84;5066512;28;45433;-51
2022/03/21 11:02:55;;;;;;;;;16.00;11.50;;;;;19.35;33.51;102297.19;5078626;27;45413;-55
2022/03/21 11:05:21;;;;;;;;;17.50;13.75;;;;;19.35;33.49;102294.56;5076534;28;45518;-50
2022/03/21 11:07:48;;;;;;;;;13.25;12.25;;;;;19.34;33.70;102292.84;5078119;27;45352;-56
2022/03/21 11:10:14;;;;;;;;;16.00;13.75;;;;;19.34;33.84;102285.84;5076956;28;45505;-44
2022/03/21 11:12:45;;;;;;;;;20.25;16.00;;;;;19.34;33.40;102285.84;5078183;27;45338;-55
2022/03/21 11:15:11;;;;;;;;;16.50;14.25;;;;;19.33;33.23;102284.09;5077700;27;45656;-56
2022/03/21 11:17:37;;;;;;;;;12.50;11.50;;;;;19.34;33.50;102285.84;5077096;28;45311;-53
2022/03/21 11:20:06;;;;;;;;;17.00;14.25;;;;;19.34;33.72;102280.56;5077173;27;45636;-53
2022/03/21 11:22:36;;;;;;;;;16.25;16.25;;;;;19.34;33.61;102279.69;5077944;28;45465;-56
2022/03/21 11:25:10;;;;;;;;;12.50;12.50;;;;;19.35;33.56;102274.38;5077972;27;45338;-52
2022/03/21 11:28:37;;;;;;;;;2.00;0.25;;;;;19.36;33.66;102272.63;5076437;28;46149;-58
2022/03/21 11:31:27;;;;;;;;;16.75;14.50;;;;;19.36;33.87;102272.63;5015263;28;45595;-53
2022/03/21 11:34:13;;;;;;;;;13.25;12.00;;;;;19.35;33.82;102266.50;5015652;28;45350;-55
2022/03/21 11:36:53;;;;;;;;;15.25;13.50;;;;;19.36;33.53;102260.34;5072642;27;45367;-57